Flight Track Log - Related Links

Times and Time Zones

All times are in EDT time to prevent confusion due to time zone crossing. See the EJA102 flight status page for this flight to view local times or setup timezone preferences in your user account.


Time Position Orientation Groundspeed Altitude Reporting Facility
EDT Latitude Longitude Course Direction KTS MPH feet Rate Location/Type
Wed 04:07:12 PM 26.2589 -80.1194 293° West 166 191 500  Level Miami Center
Wed 04:08:20 PM 26.2822 -80.1817 293° West 204 235 3,200 2,427 Climbing Miami Center
Wed 04:09:23 PM 26.2994 -80.2475 286° West 226 260 5,800 2,832 Climbing Miami Center
Wed 04:10:25 PM 26.3181 -80.3186 286° West 226 260 9,100 2,468 Climbing Miami Center
Wed 04:11:27 PM 26.3394 -80.3878 289° West 237 273 10,900 1,951 Climbing Miami Center
Wed 04:12:28 PM 26.4250 -80.4269 338° Northwest 310 357 13,100 2,098 Climbing Miami Center
Wed 04:13:30 PM 26.5078 -80.4503 346° North 307 353 15,200 1,887 Climbing Miami Center
Wed 04:14:32 PM 26.5947 -80.4783 344° North 322 371 17,000 1,854 Climbing Miami Center
Wed 04:15:33 PM 26.6872 -80.5197 338° Northwest 329 379 19,000 1,854 Climbing Miami Center
Wed 04:16:35 PM 26.7750 -80.5569 339° North 334 384 20,800 1,500 Climbing Miami Center
Wed 04:17:37 PM 26.8578 -80.5925 339° North 341 392 22,100 1,366 Climbing Miami Center
Wed 04:18:38 PM 26.9514 -80.6325 339° North 357 411 23,600 1,268 Climbing Miami Center
Wed 04:19:40 PM 27.0469 -80.6744 339° North 364 419 24,700 1,122 Climbing Miami Center
Wed 04:20:41 PM 27.1464 -80.7181 339° North 377 434 25,900 1,268 Climbing Miami Center
Wed 04:21:43 PM 27.2678 -80.7711 339° North 388 447 27,300 1,258 Climbing Miami Center
Wed 04:22:45 PM 27.3689 -80.8150 339° North 395 455 28,500 1,122 Climbing Miami Center
Wed 04:23:46 PM 27.4719 -80.8608 338° Northwest 397 457 29,600 1,024 Climbing Miami Center
Wed 04:24:48 PM 27.5767 -80.9072 339° North 406 467 30,600 919 Climbing Miami Center
Wed 04:25:50 PM 27.6831 -80.9528 339° North 412 474 31,500 919 Climbing Miami Center
Wed 04:26:52 PM 27.7883 -80.9989 339° North 410 472 32,500 1,024 Climbing Miami Center
Wed 04:27:53 PM 27.9167 -81.0553 339° North 411 473 33,600 1,024 Climbing Miami Center
Wed 04:28:55 PM 28.0228 -81.1031 338° Northwest 412 474 34,600 871 Climbing Miami Center
Wed 04:29:57 PM 28.1344 -81.1519 339° North 415 478 35,400 780 Climbing Miami Center
Wed 04:30:58 PM 28.2492 -81.2033 338° Northwest 419 482 36,200 780 Climbing Miami Center
Wed 04:32:00 PM 28.3625 -81.2533 339° North 419 482 37,000 677 Climbing Miami Center
Wed 04:33:02 PM 28.4558 -81.2947 339° North 419 482 37,600 732 Climbing Miami Center
Wed 04:34:03 PM 28.5881 -81.3494 340° North 421 484 38,500 683 Climbing Miami Center
Wed 04:35:05 PM 28.6919 -81.3842 344° North 417 480 39,000 242 Climbing Miami Center
Wed 04:36:07 PM 28.8072 -81.4214 344° North 427 491 39,000 -48 Level Miami Center
Wed 04:37:09 PM 28.9256 -81.4608 344° North 438 504 38,900 -49 Descending Miami Center
Wed 04:38:10 PM 29.0475 -81.5006 344° North 449 517 38,900 49 Level Miami Center
Wed 04:39:12 PM 29.1708 -81.5431 343° North 452 520 39,000 387 Climbing Miami Center
Wed 04:40:14 PM 29.3136 -81.5908 344° North 448 516 39,700 629 Climbing Miami Center
Wed 04:41:16 PM 29.4319 -81.6292 344° North 445 512 40,300 585 Climbing Miami Center
Wed 04:42:17 PM 29.5556 -81.6703 344° North 436 502 40,900 293 Climbing Miami Center
Wed 04:43:19 PM 29.6703 -81.7086 344° North 433 498 40,900 44 Level Miami Center
Wed 04:44:34 PM 29.8147 -81.7578 344° North 437 503 41,000  Climbing Jacksonville Center
Wed 04:45:34 PM 29.9342 -81.7972 344° North 437 503 40,900 -50 Descending Jacksonville Center
Wed 04:46:34 PM 30.0408 -81.8297 345° North 437 503 40,900  Level Jacksonville Center
Wed 04:47:34 PM 30.1581 -81.8717 343° North 437 503 40,900  Level Jacksonville Center
Wed 04:48:34 PM 30.2772 -81.9111 344° North 437 503 40,900  Level Jacksonville Center
Wed 04:49:34 PM 30.3925 -81.9581 341° North 437 503 40,900  Level Jacksonville Center
Wed 04:50:34 PM 30.5222 -82.0075 342° North 447 514 40,900  Level Jacksonville Center
Wed 04:51:34 PM 30.6397 -82.0597 339° North 454 522 40,900  Level Jacksonville Center
Wed 04:52:34 PM 30.7589 -82.1069 341° North 449 517 40,900  Level Jacksonville Center
Wed 04:53:34 PM 30.8822 -82.1300 351° North 443 510 40,900  Level Jacksonville Center
Wed 04:54:34 PM 30.9825 -82.1464 352° North 443 510 40,900  Level Jacksonville Center
Wed 04:55:34 PM 31.1183 -82.1719 351° North 443 510 40,900 -500 Level Jacksonville Center
Wed 04:56:34 PM 31.2439 -82.1903 353° North 448 516 39,900 -1,300 Descending Jacksonville Center
Wed 04:57:34 PM 31.3672 -82.2089 353° North 453 521 38,300 -1,550 Descending Jacksonville Center
Wed 04:58:34 PM 31.4906 -82.2322 351° North 448 516 36,800 -1,500 Descending Jacksonville Center
Wed 04:59:34 PM 31.6136 -82.2533 352° North 448 516 35,300 -1,600 Descending Jacksonville Center
Wed 05:00:34 PM 31.7475 -82.2744 352° North 448 516 33,600 -879 Descending Jacksonville Center
Wed 05:02:11 PM 31.9389 -82.2989 354° North 452 520 33,000 -229 Descending Atlanta Center
Wed 05:03:11 PM 32.0486 -82.3775 329° Northwest 446 513 33,000  Level Atlanta Center
Wed 05:04:11 PM 32.1519 -82.4761 321° Northwest 457 526 33,000 -550 Level Atlanta Center
Wed 05:05:11 PM 32.2472 -82.5850 316° Northwest 469 540 31,900 -1,300 Descending Atlanta Center
Wed 05:06:11 PM 32.3319 -82.6992 311° West 469 540 30,400 -1,450 Descending Atlanta Center
Wed 05:07:11 PM 32.4333 -82.7911 323° Northwest 464 534 29,000 -1,500 Descending Atlanta Center
Wed 05:08:11 PM 32.5447 -82.8906 323° Northwest 464 534 27,400 -1,500 Descending Atlanta Center
Wed 05:09:11 PM 32.6394 -82.9733 324° Northwest 458 527 26,000 -1,450 Descending Atlanta Center
Wed 05:10:11 PM 32.7406 -83.0658 322° Northwest 464 534 24,500 -1,600 Descending Atlanta Center
Wed 05:11:11 PM 32.8497 -83.1658 322° Northwest 459 528 22,800 -1,800 Descending Atlanta Center
Wed 05:12:11 PM 32.9422 -83.2542 321° Northwest 464 534 20,900 -2,000 Descending Atlanta Center
Wed 05:13:11 PM 33.0386 -83.3400 323° Northwest 458 527 18,800 -2,200 Descending Atlanta Center
Wed 05:14:11 PM 33.1372 -83.4311 322° Northwest 432 497 16,500 -2,100 Descending Atlanta Center
Wed 05:15:11 PM 33.2211 -83.5075 323° Northwest 408 470 14,600 -1,750 Descending Atlanta Center
Wed 05:16:11 PM 33.2944 -83.5792 321° Northwest 369 425 13,000 -1,626 Descending Atlanta Center
Wed 05:16:58 PM 33.3500 -83.6333 321° Northwest 318 366 11,700 -1,121 Descending Atlanta TRACON
Wed 05:17:58 PM 33.4167 -83.6833 328° Northwest 299 344 11,000 -1,083 Descending Atlanta TRACON
Wed 05:19:11 PM 33.4997 -83.7572 323° Northwest 304 350 9,300 -1,534 Descending Atlanta Center
Wed 05:20:11 PM 33.5767 -83.7347 14° North 263 303 7,600 -1,150 Descending Atlanta Center
Wed 05:21:11 PM 33.6497 -83.6844 30° Northeast 258 297 7,000 -350 Descending Atlanta Center
Wed 05:22:11 PM 33.7292 -83.6842 360° North 272 313 6,900 -50 Descending Atlanta Center
Wed 05:23:11 PM 33.8083 -83.6664 11° North 277 319 6,900 -600 Level Atlanta Center
Wed 05:24:11 PM 33.8792 -83.6233 27° Northeast 277 319 5,700 -950 Descending Atlanta Center
Wed 05:25:11 PM 33.9458 -83.5881 24° Northeast 270 311 5,000 -243 Descending Atlanta Center
Wed 05:27:04 PM 34.0333 -83.6500 330° Northwest 221 254 5,000  Level Atlanta TRACON
Wed 05:27:58 PM 34.0833 -83.6833 331° Northwest 237 273 5,000 -526 Level Atlanta TRACON
Wed 05:28:58 PM 34.1167 -83.6167 59° Northeast 228 262 4,000 -476 Descending Atlanta TRACON
Wed 05:30:04 PM 34.1000 -83.5500 107° East 205 236 4,000  Level Atlanta TRACON
Wed 05:31:04 PM 34.0833 -83.5833 239° Southwest 180 207 4,000  Level Atlanta TRACON
Wed 05:31:58 PM 34.0667 -83.6500 253° West 196 226 4,000  Level Atlanta TRACON
Wed 05:32:58 PM 34.0500 -83.7167 253° West 209 241 4,000  Level Atlanta TRACON
Wed 05:33:58 PM 34.1000 -83.7333 345° North 242 278 4,000  Level Atlanta TRACON
Wed 05:35:04 PM 34.1167 -83.6500 76° East 231 266 4,000  Level Atlanta TRACON
Wed 05:36:04 PM 34.1000 -83.6167 121° Southeast 218 251 4,000  Level Atlanta TRACON
Wed 05:36:58 PM 34.0500 -83.6167 180° South 192 221 4,000  Level Atlanta TRACON
Wed 05:37:58 PM 34.0000 -83.6667 220° Southwest 214 246 4,000  Level Atlanta TRACON
Wed 05:38:58 PM 33.9500 -83.7000 209° Southwest 223 257 4,000  Level Atlanta TRACON
Wed 05:39:58 PM 33.9000 -83.7500 220° Southwest 223 257 4,000  Level Atlanta TRACON
Wed 05:40:52 PM 33.8667 -83.8000 231° Southwest 228 262 4,000 -158 Level Atlanta TRACON
Wed 05:41:52 PM 33.8833 -83.8667 287° West 223 257 3,700 -650 Descending Atlanta TRACON
Wed 05:42:52 PM 33.9333 -83.8833 345° North 199 229 2,700 -900 Descending Atlanta TRACON
Wed 05:43:52 PM 33.9667 -83.9167 320° Northwest 151 174 1,900 -800 Descending Atlanta TRACON

Login

Don't have an account? Register now (free) for customized features, flight alerts, and more!